Latest Weather Observations for Maria Island

IDT60801

Issued at 7:31 am EST Tuesday 1 September 2015 (issued every 30 minutes, with the page automatically refreshed every 10 minutes)

About weather observations | Map of weather stations | Latest weather observations for TAS | Other Formats
Station Details ID: 092124 Name: MARIA ISLAND (POINT LESUEUR) Lat: -42.66 Lon: 148.02 Height: 28.0 m
Data from the previous 72 hours. | See also: Recent months at Maria Island
Date/Time
EST
Temp
°C
App
Temp
°C
Dew
Point
Rel
Hum
%
Delta-T
°C
Wind Press
QNH
hPa
Press
MSL
hPa
Rain
since 9 am
mm
Dir
 
Spd
km/h
Gust
km/h
Spd
kts
Gust
kts
01/07:30am 8.0 3.1 6.8 92 0.6 SW 22 28 12 15 1016.0 1016.0 1.6
01/07:00am 7.9 1.4 6.7 92 0.6 SW 30 33 16 18 1015.8 1015.8 1.6
01/06:30am 7.8 2.2 7.1 95 0.3 SW 26 32 14 17 1015.5 1015.5 1.6
01/06:00am 8.2 2.7 7.4 95 0.4 SW 26 32 14 17 1015.4 1015.4 1.6
01/05:30am 8.2 3.4 7.4 95 0.4 SW 22 26 12 14 1015.4 1015.4 1.6
01/05:00am 8.3 2.8 7.5 95 0.4 SW 26 32 14 17 1015.5 1015.5 1.6
01/04:30am 8.6 2.7 7.4 92 0.6 SW 28 32 15 17 1015.4 1015.4 1.6
01/04:00am 8.5 2.9 7.1 91 0.7 SSW 26 30 14 16 1015.6 1015.6 1.6
01/03:30am 8.4 3.2 7.2 92 0.6 SW 24 30 13 16 1015.7 1015.7 1.6
01/03:00am 8.4 2.1 7.2 92 0.6 SSW 30 33 16 18 1015.8 1015.8 1.6
01/02:30am 8.6 3.4 7.1 90 0.7 SW 24 28 13 15 1016.1 1016.1 1.6
01/02:00am 8.7 3.1 7.0 89 0.8 SW 26 32 14 17 1016.4 1016.4 1.6
01/01:30am 8.8 3.1 6.8 87 0.9 SW 26 30 14 16 1016.7 1016.7 1.6
01/01:00am 9.0 3.3 6.6 85 1.1 SSW 26 30 14 16 1016.8 1016.8 1.6
01/12:30am 8.8 3.5 6.6 86 1.0 SW 24 28 13 15 1017.1 1017.1 1.6
01/12:00am 8.6 2.9 6.6 87 0.9 SSW 26 30 14 16 1017.1 1017.1 1.6
 
Date/Time
EST
Temp
°C
App
Temp
°C
Dew
Point
Rel
Hum
%
Delta-T
°C
Wind Press
QNH
hPa
Press
MSL
hPa
Rain
since 9 am
mm
Dir
 
Spd
km/h
Gust
km/h
Spd
kts
Gust
kts
31/11:30pm 9.0 3.2 6.4 84 1.2 SSW 26 30 14 16 1017.2 1017.2 1.6
31/11:00pm 9.1 3.7 6.2 82 1.3 SSW 24 28 13 15 1017.4 1017.4 1.6
31/10:30pm 9.4 4.4 6.5 82 1.3 SSW 22 28 12 15 1017.8 1017.8 1.6
31/10:00pm 9.7 4.8 7.0 83 1.3 S 22 24 12 13 1017.9 1017.9 1.6
31/09:30pm 9.8 5.3 6.3 79 1.6 S 19 20 10 11 1018.0 1018.0 1.6
31/09:00pm 9.8 5.2 6.3 79 1.6 S 20 26 11 14 1018.2 1018.2 1.6
31/08:30pm 9.7 4.7 6.6 81 1.4 S 22 26 12 14 1018.2 1018.2 1.6
31/08:00pm 9.6 5.2 6.5 81 1.4 SSE 19 24 10 13 1018.2 1018.2 1.6
31/07:30pm 9.6 5.7 7.2 85 1.1 SSE 17 22 9 12 1018.2 1018.2 1.6
31/07:00pm 9.6 5.7 7.0 84 1.2 SSE 17 22 9 12 1018.1 1018.1 1.6
31/06:30pm 9.0 6.5 8.2 95 0.4 S 11 13 6 7 1018.2 1018.2 1.6
31/06:00pm 8.9 5.7 8.3 96 0.3 SSE 15 17 8 9 1018.2 1018.2 1.4
31/05:30pm 8.9 4.3 8.3 96 0.3 SW 22 26 12 14 1018.2 1018.2 1.2
31/05:00pm 8.7 3.3 7.9 95 0.4 SW 26 28 14 15 1018.1 1018.1 0.2
31/04:30pm 9.2 4.2 8.1 93 0.5 SW 24 30 13 16 1018.2 1018.2 0.2
31/04:00pm 8.8 3.4 8.0 95 0.4 SW 26 30 14 16 1018.2 1018.2 0.2
31/03:30pm 8.9 3.6 8.3 96 0.3 SW 26 32 14 17 1018.3 1018.3 0.2
31/03:00pm 9.0 3.3 8.4 96 0.3 SSW 28 32 15 17 1018.4 1018.4 0.2
31/02:30pm 8.8 3.1 8.2 96 0.3 SSW 28 33 15 18 1018.7 1018.7 0.0
31/02:00pm 9.2 3.0 8.0 92 0.6 SSW 30 35 16 19 1018.7 1018.7 0.0
31/01:30pm 9.4 3.1 7.3 87 1.0 SSW 30 35 16 19 1018.9 1018.9 0.0
31/01:00pm 10.0 3.5 6.3 78 1.7 SSW 30 37 16 20 1019.1 1019.1 0.0
31/12:30pm 9.9 3.4 6.3 78 1.7 SSW 30 35 16 19 1019.5 1019.5 0.0
31/12:00pm 9.7 4.2 6.1 78 1.7 SSW 24 28 13 15 1019.9 1019.9 0.0
31/11:30am 9.9 4.7 5.7 75 1.9 SSW 22 32 12 17 1020.3 1020.3 0.0
31/11:00am 9.6 4.0 5.6 76 1.8 SSW 24 37 13 20 1020.5 1020.5 0.0
31/10:30am 9.4 3.1 5.6 77 1.7 SSW 28 30 15 16 1020.5 1020.5 0.0
31/10:00am 9.3 3.4 5.9 79 1.6 SSW 26 30 14 16 1020.7 1020.7 0.0
31/09:30am 9.2 3.7 6.1 81 1.4 SSW 24 28 13 15 1020.8 1020.8 0.0
31/09:00am 8.4 3.2 5.7 83 1.2 SSW 22 32 12 17 1021.1 1021.1 2.0
31/08:30am 8.5 2.7 6.1 85 1.1 SSW 26 32 14 17 1021.2 1021.2 2.0
31/08:00am 7.9 2.4 5.9 87 0.9 SSW 24 32 13 17 1021.1 1021.1 2.0
31/07:30am 8.2 2.3 5.8 85 1.1 SSW 26 32 14 17 1021.1 1021.1 2.0
31/07:00am 7.8 1.9 5.8 87 0.9 SW 26 30 14 16 1021.0 1021.0 2.0
31/06:30am 7.8 1.3 6.3 90 0.7 SSW 30 37 16 20 1020.8 1020.8 2.0
31/06:00am 7.5 2.4 6.0 90 0.7 SSW 22 28 12 15 1020.9 1020.9 2.0
31/05:30am 7.3 2.3 6.6 95 0.3 SSW 22 26 12 14 1021.1 1021.1 2.0
31/05:00am 7.6 1.9 6.7 94 0.4 SSW 26 30 14 16 1021.2 1021.2 1.6
31/04:30am 7.6 1.1 6.5 93 0.5 SSW 30 35 16 19 1021.1 1021.1 1.4
31/04:00am 7.7 0.6 6.2 90 0.7 SSW 33 39 18 21 1021.2 1021.2 1.4
31/03:30am 8.0 2.5 6.0 87 0.9 SSW 24 32 13 17 1021.3 1021.3 1.4
31/03:00am 7.8 2.0 6.3 90 0.7 SSW 26 30 14 16 1021.4 1021.4 1.4
31/02:30am 8.0 1.5 6.3 89 0.8 SSW 30 35 16 19 1021.7 1021.7 1.4
31/02:00am 7.8 1.7 6.4 91 0.6 SSW 28 32 15 17 1022.1 1022.1 1.4
31/01:30am 7.5 2.1 6.4 93 0.5 SSW 24 32 13 17 1022.3 1022.3 1.4
31/01:00am 7.4 1.7 6.7 95 0.3 SSW 26 33 14 18 1022.4 1022.5 1.2
31/12:30am 7.7 1.6 6.5 92 0.5 SSW 28 37 15 20 1022.7 1022.8 1.2
31/12:00am 7.9 2.5 6.5 91 0.6 SSW 24 30 13 16 1022.8 1022.9 1.2
 
Date/Time
EST
Temp
°C
App
Temp
°C
Dew
Point
Rel
Hum
%
Delta-T
°C
Wind Press
QNH
hPa
Press
MSL
hPa
Rain
since 9 am
mm
Dir
 
Spd
km/h
Gust
km/h
Spd
kts
Gust
kts
30/11:30pm 7.9 0.8 6.4 90 0.7 SSW 33 37 18 20 1022.8 1022.9 1.0
30/11:00pm 8.1 2.0 6.4 89 0.8 SSW 28 35 15 19 1023.0 1023.1 1.0
30/10:30pm 8.0 2.2 6.1 88 0.9 SW 26 35 14 19 1023.2 1023.3 0.6
30/10:00pm 8.1 1.6 6.4 89 0.8 SSW 30 39 16 21 1023.3 1023.4 0.4
30/09:30pm 8.5 2.0 6.3 86 1.0 SSW 30 35 16 19 1023.5 1023.6 0.4
30/09:00pm 8.3 2.1 6.3 87 0.9 SSW 28 35 15 19 1023.5 1023.6 0.4
30/08:30pm 8.5 1.9 6.1 85 1.1 SSW 30 39 16 21 1023.4 1023.5 0.4
30/08:00pm 8.4 2.3 6.4 87 0.9 SW 28 35 15 19 1023.4 1023.5 0.4
30/07:30pm 8.0 1.9 6.6 91 0.6 SW 28 30 15 16 1023.3 1023.4 0.4
30/07:00pm 8.2 1.1 6.3 88 0.9 SW 33 37 18 20 1023.2 1023.3 0.4
30/06:30pm 8.4 1.3 6.2 86 1.0 SSW 33 43 18 23 1023.1 1023.2 0.4
30/06:00pm 9.1 2.0 5.5 78 1.6 SSW 32 37 17 20 1022.9 1023.0 0.4
30/05:30pm 8.9 1.8 5.5 79 1.5 SSW 32 35 17 19 1022.7 1022.8 0.4
30/05:00pm 8.9 2.0 6.3 84 1.2 SSW 32 37 17 20 1022.6 1022.7 0.4
30/04:30pm 8.7 1.7 6.7 87 0.9 SSW 33 39 18 21 1022.8 1022.9 0.4
30/04:00pm 8.1 0.9 5.9 86 1.0 S 33 41 18 22 1022.7 1022.8 0.4
30/03:30pm 8.7 1.8 7.3 91 0.7 SSW 33 43 18 23 1022.8 1022.9 0.4
30/03:00pm 8.2 0.5 7.1 93 0.5 SSW 37 43 20 23 1022.9 1023.0 0.4
30/02:30pm 8.2 0.1 6.8 91 0.6 SSW 39 44 21 24 1022.9 1023.0 0.2
30/02:00pm 9.1 0.4 6.0 81 1.4 SSW 41 46 22 25 1022.6 1022.7 0.0
30/01:30pm 9.2 1.2 5.9 80 1.5 SSW 37 43 20 23 1022.8 1022.9 0.0
30/01:00pm 9.1 1.6 6.2 82 1.3 SSW 35 44 19 24 1022.8 1022.9 0.0
30/12:30pm 9.5 1.8 5.5 76 1.8 SSW 35 43 19 23 1023.1 1023.2 0.0
30/12:00pm 9.1 1.0 5.3 77 1.7 SSW 37 44 20 24 1023.5 1023.6 0.0
30/11:30am 9.4 1.6 6.8 84 1.2 SSW 37 41 20 22 1024.0 1024.1 0.0
30/11:00am 8.3 0.4 6.4 88 0.9 SSW 37 44 20 24 1024.1 1024.2 0.0
30/10:30am 8.0 -1.1 6.0 87 0.9 SSW 43 52 23 28 1024.3 1024.4 0.0
30/10:00am 8.2 -0.7 5.3 82 1.3 SSW 41 46 22 25 1024.3 1024.4 0.0
30/09:30am 8.0 -1.3 5.1 82 1.3 SSW 43 50 23 27 1024.6 1024.7 0.0
30/09:00am 7.7 -1.5 5.3 85 1.1 SSW 43 50 23 27 1024.4 1024.5 0.2
30/08:30am 7.6 -1.6 5.6 87 0.9 SSW 43 52 23 28 1024.4 1024.5 0.2
30/08:00am 7.9 -0.7 4.5 79 1.5 SSW 39 48 21 26 1024.1 1024.2 0.2
30/07:30am 7.8 -1.1 5.3 84 1.1 SSW 41 50 22 27 1023.9 1024.0 0.2
30/07:00am 7.4 -1.4 5.5 88 0.8 SSW 41 54 22 29 1023.7 1023.8 0.2
30/06:30am 7.4 -1.7 5.7 89 0.8 SSW 43 54 23 29 1023.3 1023.4 0.2
30/06:00am 7.4 -2.0 5.2 86 1.0 SSW 44 52 24 28 1023.1 1023.2 0.2
30/05:30am 7.7 -2.2 4.8 82 1.3 SSW 46 57 25 31 1022.8 1022.9 0.2
30/05:00am 7.2 -2.1 5.7 90 0.7 SSW 44 50 24 27 1022.8 1022.9 0.2
30/04:30am 7.5 -0.9 5.5 87 0.9 SSW 39 44 21 24 1022.8 1022.9 0.2
30/04:00am 7.0 -1.3 5.9 93 0.5 SSW 39 46 21 25 1022.9 1023.0 0.2
30/03:30am 6.9 -2.9 5.4 90 0.7 SSW 46 52 25 28 1022.7 1022.8 0.2
30/03:00am 8.1 -1.5 4.5 78 1.6 SSW 44 56 24 30 1022.9 1023.0 0.2
30/02:30am 8.1 -2.0 3.6 73 1.9 SSW 46 59 25 32 1023.0 1023.1 0.2
30/02:00am 8.2 -2.3 3.5 72 2.0 SSW 48 56 26 30 1023.3 1023.4 0.2
30/01:30am 8.1 -2.0 3.9 75 1.8 SSW 46 54 25 29 1023.5 1023.6 0.2
30/01:00am 8.2 -2.4 3.3 71 2.1 SSW 48 57 26 31 1023.7 1023.8 0.2
30/12:30am 8.2 -2.3 3.7 73 1.9 SSW 48 54 26 29 1023.7 1023.8 0.2
30/12:00am 8.3 -2.1 4.1 75 1.8 SSW 48 59 26 32 1023.8 1023.9 0.2
 
Date/Time
EST
Temp
°C
App
Temp
°C
Dew
Point
Rel
Hum
%
Delta-T
°C
Wind Press
QNH
hPa
Press
MSL
hPa
Rain
since 9 am
mm
Dir
 
Spd
km/h
Gust
km/h
Spd
kts
Gust
kts
29/11:30pm 8.1 -2.0 3.6 73 1.9 SSW 46 54 25 29 1023.7 1023.8 0.2
29/11:00pm 8.1 -2.4 3.4 72 2.0 SSW 48 61 26 33 1023.7 1023.8 0.2
29/10:30pm 8.2 -2.2 4.0 75 1.8 SSW 48 57 26 31 1023.7 1023.8 0.2
29/10:00pm 8.1 -2.4 3.4 72 2.0 SSW 48 56 26 30 1023.7 1023.8 0.2
29/09:30pm 8.3 -2.5 3.9 74 1.9 SSW 50 57 27 31 1023.6 1023.7 0.2
29/09:00pm 8.3 -2.6 3.6 72 2.0 SSW 50 59 27 32 1023.5 1023.6 0.2
29/08:30pm 8.3 -2.9 4.1 75 1.8 SSW 52 59 28 32 1023.1 1023.2 0.2
29/08:00pm 8.5 -2.7 3.9 73 2.0 SSW 52 61 28 33 1022.8 1022.9 0.2
29/07:30pm 8.5 -2.2 4.7 77 1.7 SSW 50 57 27 31 1022.6 1022.7 0.2
29/07:00pm 8.4 -3.0 4.8 78 1.6 SSW 54 63 29 34 1022.2 1022.2 0.2
29/06:30pm 8.3 -2.7 5.1 80 1.4 SSW 52 63 28 34 1022.0 1022.0 0.2
29/06:00pm 8.0 -2.1 5.5 84 1.1 SSW 48 57 26 31 1022.0 1022.0 0.2
29/05:30pm 7.9 -3.4 5.5 85 1.1 SSW 54 61 29 33 1021.3 1021.3 0.2
29/05:00pm 8.0 -3.2 5.8 86 1.0 SSW 54 63 29 34 1021.0 1021.0 0.2
29/04:30pm 8.5 -2.7 5.8 83 1.2 SSW 54 63 29 34 1020.6 1020.6 0.2
29/04:00pm 8.2 -3.0 6.0 86 1.0 SSW 54 63 29 34 1020.4 1020.4 0.2
29/03:30pm 8.2 -2.9 6.5 89 0.8 SSW 54 65 29 35 1020.3 1020.3 0.0
29/03:00pm 8.4 -2.6 6.7 89 0.8 SSW 54 61 29 33 1020.3 1020.3 0.0
29/02:30pm 8.5 -1.4 6.6 88 0.9 SSW 48 57 26 31 1020.2 1020.2 0.0
29/02:00pm 9.1 -1.2 6.4 83 1.2 SSW 50 61 27 33 1019.8 1019.8 0.0
29/01:30pm 9.1 -0.8 6.5 84 1.2 SSW 48 57 26 31 1019.6 1019.6 0.0
29/01:02pm 8.9 -1.1 6.2 83 1.2 S 48 67 26 36 1019.6 1019.6 0.0
29/01:00pm 9.3 -0.2 6.7 84 1.2 S 46 59 25 32 1019.8 1019.8 0.0
29/12:43pm 9.2 -1.5 6.5 83 1.3 S 52 72 28 39 1019.7 1019.7 0.0
29/12:30pm 9.4 -0.9 6.7 83 1.3 S 50 63 27 34 1019.6 1019.6 0.0
29/12:16pm 9.2 -1.1 6.6 84 1.2 S 50 69 27 37 1019.7 1019.7 0.0
29/12:00pm 9.5 -1.6 6.2 80 1.5 S 54 63 29 34 1019.7 1019.7 0.0
29/11:30am 9.5 -2.0 6.2 80 1.5 SSW 56 67 30 36 1019.5 1019.5 0.0
29/11:00am 9.5 -1.5 6.6 82 1.3 SSW 54 61 29 33 1019.6 1019.6 0.0
29/10:31am 9.1 -2.3 6.7 85 1.1 S 56 82 30 44 1019.3 1019.3 0.0
29/10:30am 9.2 -1.8 7.0 86 1.0 S 54 69 29 37 1019.5 1019.5 0.0
29/10:12am 9.3 -1.6 7.3 87 0.9 SSW 54 74 29 40 1019.4 1019.4 0.0
29/10:00am 8.9 -2.3 7.4 90 0.7 SSW 56 69 30 37 1019.3 1019.3 0.0
29/09:30am 9.0 -2.1 7.8 92 0.6 SSW 56 67 30 36 1019.1 1019.1 0.0
29/09:00am 9.4 -2.1 8.6 95 0.4 S 59 72 32 39 1018.6 1018.6 17.2
29/08:34am 9.4 -3.6 8.8 96 0.3 S 67 89 36 48 1017.8 1017.8 17.2
29/08:30am 9.2 -3.4 8.7 97 0.2 S 65 78 35 42 1018.0 1018.0 17.2
29/08:00am 8.9 -4.2 8.5 97 0.2 S 67 85 36 46 1017.7 1017.7 16.8
29/07:34am 9.6 -2.6 9.1 97 0.2 S 63 85 34 46 1017.1 1017.1 16.4

Other Formats:

Comma delimited format used in spreadsheet applications
http://www.bom.gov.au/fwo/IDT60801/IDT60801.95988.axf

JavaScript Object Notation format (JSON) in row-major order
http://www.bom.gov.au/fwo/IDT60801/IDT60801.95988.json